LFMV 181630Z AUTO 33011KT CAVOK 25/16 Q1010 TEMPO VRB15G25KT 4000 SHRA SCT050CB

ElémentsDécodage
LFMV Station météo située sur l'aérodrome de AVIGNON Caumont
181630Z émis le 18 du mois à 16h30 UTC
AUTO Bulletin édité par un automate
33011KT vent du 330°, 11 noeuds
CAVOK Ceiling And Visibility OK
- Visibilité de 10 Km ou plus
- Pas de nuage au-dessous de 1500m ou au-dessous de l'altitude minimale du secteur la plus élevée (si>1500m) et absence de CB
- pas de temps présent significatif
25/16 température 25°C, point de rosée 16°C
 soit une humidité relative de 57%
Q1010 la pression au niveau de la mer (QNH) est de 1010 hPa
TEMPO fluctuation temporaire prévue
VRB15G25KT vent de direction variable, moyenne: 15 noeuds, avec rafales à 25 noeuds
4000 visibilité horizontale de 4000 mètres
SHRA averse(s) de pluie
SCT050CB nuages épars (3/8 à 4/8) à 5000 pieds
 présence de cumulonimbus